Kezdőlap
METAR-TAF:

METAR-TAF

Repülőterek :

Madrid-Cuatro Vientos, Spanyolország

földrajzi szélesség: 40-23N, földrajzi hosszúság: 003-47W, magasság: 690 m

Jelenlegi meteorológiai megfigyelések

A jelentés 27 perccel ezelõtt készült, 02:00 UTC
Különbözõ irányokból fújó szél 2 kt
Hőmérséklet 19°C
Páratartalom 60%
Légköri nyomás 1020 hPa
Látótávolság 10 km, vagy több
felhőtlen 1500 m magasságban, és nincs gomolyfelhõ

METAR: LEVS 230200Z AUTO VRB02KT CAVOK 19/11 Q1020

Idő: 04:27 (02:27 UTC)

Előrejelzés

A jelentés 3 órával és 27 perccel ezelõtt készült, 23:00 UTC
Az előrejelzés 23-én 00 óra UTC és 23-én 24 óra UTC között érvényes
Északkeleti szél 7 kt
Látótávolság 10 km, vagy több
felhőtlen 1500 m magasságban, és nincs gomolyfelhõ
23-én 21 óra UTC és 23-én 24 óra UTC között ideiglenes
Északkeleti szél 15 kt széllökések: 25 kt

TAF: LEVS 222300Z 2300/2324 05007KT CAVOK TX30/2315Z TN17/2305Z TEMPO 2321/2324 04015G25KT

Meteorológiai megfigyelések és előrejelzések több, mint 4000 repülőtéren (METAR és TAF jelentéseket).

A térképen piros és sárga pontok jelzik az elérhető meteorológiai állomásokat.

Mozgassa az egeret a pont fölött, hogy megjelenjen az állomás neve.

Azután kattintson az időjárási megfigyelések és előrejelzések megtekintéséhez.

A térkép megváltoztatása: kattintson a fekete keresztel jelölt zöld gombra ráközelítéshez, a vonallal jelölt zöld gombra távolításhoz, vagy a zöld nyilakra a szomszédos térképek eléréséhez.


METAR-TAF: